Time;durP1;ratioP1;P1;durP2;ratioP2;P2;SDS_P1;SDS_P2;PMS_P1;PMS_P2;Temp;Humidity;BMP_temperature;BMP_pressure;BME280_temperature;BME280_humidity;BME280_pressure;Samples;Min_cycle;Max_cycle;Signal;HPM_P1;HPM_P2
2023/06/07 00:02:23;;;;;;;9.83;8.07;;;18.50;99.90;;;;;;5029301;28;20570;-70
2023/06/07 00:04:49;;;;;;;8.00;7.03;;;18.40;99.90;;;;;;5029490;28;20457;-70
2023/06/07 00:07:18;;;;;;;7.97;7.17;;;18.40;99.90;;;;;;5029842;28;20209;-71
2023/06/07 00:09:43;;;;;;;9.40;7.17;;;18.40;99.90;;;;;;5028862;28;20178;-70
2023/06/07 00:12:10;;;;;;;9.00;7.70;;;18.40;99.90;;;;;;5027860;28;20413;-70
2023/06/07 00:14:36;;;;;;;9.90;7.50;;;18.50;99.90;;;;;;5029367;28;20249;-70
2023/06/07 00:17:02;;;;;;;7.57;6.80;;;18.40;99.90;;;;;;5028502;28;20456;-70
2023/06/07 00:19:29;;;;;;;10.20;7.30;;;18.40;99.90;;;;;;5029596;28;21125;-70
2023/06/07 00:21:55;;;;;;;7.83;6.40;;;18.40;99.90;;;;;;5029127;28;20856;-70
2023/06/07 00:24:21;;;;;;;8.73;6.77;;;18.40;99.90;;;;;;5029285;28;20468;-71
2023/06/07 00:26:47;;;;;;;8.07;6.50;;;18.40;99.90;;;;;;5029367;28;20417;-71
2023/06/07 00:29:14;;;;;;;7.90;6.10;;;18.40;99.90;;;;;;5047742;28;20452;-71
2023/06/07 00:31:40;;;;;;;8.97;6.67;;;18.40;99.90;;;;;;5035011;28;20183;-70
2023/06/07 00:34:06;;;;;;;7.43;6.53;;;18.30;99.90;;;;;;5029204;28;20452;-70
2023/06/07 00:36:35;;;;;;;10.20;6.47;;;18.30;99.90;;;;;;5029113;28;20555;-70
2023/06/07 00:39:02;;;;;;;7.07;6.00;;;18.30;99.90;;;;;;5029203;28;20772;-70
2023/06/07 00:41:28;;;;;;;9.60;6.60;;;18.40;99.90;;;;;;5028571;28;20409;-70
2023/06/07 00:43:53;;;;;;;10.17;5.97;;;18.40;99.90;;;;;;5029014;28;20416;-69
2023/06/07 00:46:21;;;;;;;8.20;6.10;;;18.40;99.90;;;;;;5029239;28;20186;-70
2023/06/07 00:48:49;;;;;;;12.27;8.30;;;18.30;99.90;;;;;;5029267;28;20210;-70
2023/06/07 00:51:15;;;;;;;6.70;6.00;;;18.30;99.90;;;;;;5028803;28;20420;-70
2023/06/07 00:53:42;;;;;;;9.13;5.90;;;18.30;99.90;;;;;;5028605;28;20409;-70
2023/06/07 00:56:09;;;;;;;9.83;6.20;;;18.30;99.90;;;;;;5029062;28;20456;-69
2023/06/07 00:58:38;;;;;;;9.30;6.10;;;18.30;99.90;;;;;;5029043;28;21136;-69
2023/06/07 01:01:04;;;;;;;8.90;6.80;;;18.30;99.90;;;;;;5029050;28;20429;-70
2023/06/07 01:03:30;;;;;;;8.77;6.10;;;18.20;99.90;;;;;;5027963;28;20821;-69
2023/06/07 01:05:58;;;;;;;11.77;6.47;;;18.20;99.90;;;;;;5028957;28;20436;-69
2023/06/07 01:08:25;;;;;;;8.47;6.37;;;18.20;99.90;;;;;;5028695;28;20461;-70
2023/06/07 01:10:52;;;;;;;9.60;6.43;;;18.30;99.90;;;;;;5028850;28;20460;-69
2023/06/07 01:13:18;;;;;;;8.00;5.73;;;18.20;99.90;;;;;;5027874;28;20559;-70
2023/06/07 01:15:44;;;;;;;9.27;6.27;;;18.20;99.90;;;;;;5028926;28;20409;-70
2023/06/07 01:18:10;;;;;;;9.60;5.60;;;18.20;99.90;;;;;;5027969;28;20495;-70
2023/06/07 01:20:38;;;;;;;10.53;5.80;;;18.20;99.90;;;;;;5032064;28;20437;-70
2023/06/07 01:23:07;;;;;;;8.17;5.80;;;18.10;99.90;;;;;;5034507;28;20178;-70
2023/06/07 01:25:33;;;;;;;7.80;6.00;;;18.10;99.90;;;;;;5035386;28;20938;-69
2023/06/07 01:28:00;;;;;;;11.50;6.60;;;18.10;99.90;;;;;;5043538;28;20450;-70
2023/06/07 01:30:31;;;;;;;10.03;5.83;;;18.10;99.90;;;;;;5052031;28;20783;-69
2023/06/07 01:32:58;;;;;;;6.20;5.60;;;18.10;99.90;;;;;;5034848;28;20421;-71
2023/06/07 01:35:25;;;;;;;7.73;5.63;;;18.00;99.90;;;;;;5035401;28;20499;-70
2023/06/07 01:37:52;;;;;;;10.40;6.47;;;18.00;99.90;;;;;;5035258;28;21021;-70
2023/06/07 01:40:20;;;;;;;9.37;6.20;;;18.00;99.90;;;;;;5035532;28;20539;-70
2023/06/07 01:42:47;;;;;;;7.03;6.33;;;18.00;99.90;;;;;;5034750;28;20424;-70
2023/06/07 01:45:13;;;;;;;10.60;6.50;;;18.00;99.90;;;;;;5035139;28;20420;-70
2023/06/07 01:47:39;;;;;;;8.77;5.80;;;18.00;99.90;;;;;;5035264;28;20519;-69
2023/06/07 01:50:08;;;;;;;10.80;6.40;;;18.00;99.90;;;;;;5035283;28;20417;-70
2023/06/07 01:52:33;;;;;;;9.80;6.17;;;18.10;99.90;;;;;;5034580;28;20428;-70
2023/06/07 01:55:00;;;;;;;9.90;6.43;;;18.00;99.90;;;;;;5034863;28;20797;-70
2023/06/07 01:57:52;;;;;;;6.83;5.83;;;18.00;99.90;;;;;;5034932;28;20229;-70
2023/06/07 02:00:55;;;;;;;6.07;5.40;;;17.90;99.90;;;;;;5035125;28;20413;-70
2023/06/07 02:03:32;;;;;;;9.63;5.90;;;17.90;99.90;;;;;;5034001;28;20428;-70
2023/06/07 02:06:02;;;;;;;7.03;5.07;;;17.80;99.90;;;;;;5034854;28;20429;-70
2023/06/07 02:08:29;;;;;;;6.20;5.53;;;17.90;99.90;;;;;;5035032;28;20459;-70
2023/06/07 02:10:56;;;;;;;6.60;5.80;;;17.90;99.90;;;;;;5034884;28;20409;-70
2023/06/07 02:13:22;;;;;;;8.10;6.17;;;17.90;99.90;;;;;;5033924;28;20412;-70
2023/06/07 02:15:48;;;;;;;8.33;5.73;;;17.90;99.90;;;;;;5034800;28;20428;-69
2023/06/07 02:18:18;;;;;;;6.70;5.53;;;17.90;99.90;;;;;;5034023;28;20425;-70
2023/06/07 02:20:44;;;;;;;9.23;5.20;;;17.80;99.90;;;;;;5035003;28;20667;-70
2023/06/07 02:23:09;;;;;;;5.93;5.30;;;17.80;99.90;;;;;;5033961;28;20409;-70
2023/06/07 02:25:35;;;;;;;12.13;6.97;;;17.80;99.90;;;;;;5034725;28;20183;-70
2023/06/07 02:28:02;;;;;;;6.50;5.70;;;17.80;99.90;;;;;;5042995;28;20205;-70
2023/06/07 02:30:28;;;;;;;6.47;5.07;;;17.70;99.90;;;;;;5051090;28;20194;-70
2023/06/07 02:32:54;;;;;;;7.10;5.57;;;17.70;99.90;;;;;;5030321;28;21026;-70
2023/06/07 02:35:21;;;;;;;7.20;6.50;;;17.70;99.90;;;;;;5031468;28;20764;-70
2023/06/07 02:37:47;;;;;;;7.57;6.80;;;17.70;99.90;;;;;;5031341;28;20206;-70
2023/06/07 02:40:13;;;;;;;9.33;6.80;;;17.60;99.90;;;;;;5031515;28;20463;-71
2023/06/07 02:42:46;;;;;;;7.60;6.80;;;17.60;99.90;;;;;;5030881;28;20574;-70
2023/06/07 02:45:13;;;;;;;7.20;5.70;;;17.60;99.90;;;;;;5031409;28;20445;-70
2023/06/07 02:47:39;;;;;;;7.60;6.87;;;17.60;99.90;;;;;;5031206;28;20440;-71
2023/06/07 02:50:06;;;;;;;7.77;6.27;;;17.60;99.90;;;;;;5031293;28;20419;-70
2023/06/07 02:52:33;;;;;;;7.50;6.50;;;17.50;99.90;;;;;;5030803;28;20425;-70
2023/06/07 02:55:00;;;;;;;9.73;6.23;;;17.60;99.90;;;;;;5029780;28;20820;-70
2023/06/07 02:57:26;;;;;;;6.60;5.90;;;17.50;99.90;;;;;;5030901;28;20506;-70
2023/06/07 02:59:56;;;;;;;8.20;6.40;;;17.50;99.90;;;;;;5030995;28;20409;-70
2023/06/07 03:02:22;;;;;;;9.07;6.13;;;17.40;99.90;;;;;;5027611;28;20460;-71
2023/06/07 03:04:49;;;;;;;6.53;5.93;;;17.40;99.90;;;;;;5026837;28;20433;-71
2023/06/07 03:07:15;;;;;;;8.37;5.97;;;17.40;99.90;;;;;;5023186;28;20511;-70
2023/06/07 03:09:41;;;;;;;7.93;5.97;;;17.40;99.90;;;;;;5030592;28;20428;-70
2023/06/07 03:12:07;;;;;;;7.30;5.90;;;17.40;99.90;;;;;;5029963;28;20417;-70
2023/06/07 03:14:34;;;;;;;9.20;6.63;;;17.40;99.90;;;;;;5030601;28;20228;-70
2023/06/07 03:17:02;;;;;;;7.23;5.97;;;17.40;99.90;;;;;;5029646;28;21455;-70
2023/06/07 03:19:28;;;;;;;10.50;6.60;;;17.30;99.90;;;;;;5030740;28;20906;-70
2023/06/07 03:21:53;;;;;;;12.00;6.33;;;17.40;99.90;;;;;;5028940;28;20435;-70
2023/06/07 03:24:19;;;;;;;7.50;6.23;;;17.40;99.90;;;;;;5030166;28;20333;-70
2023/06/07 03:26:45;;;;;;;8.10;6.20;;;17.40;99.90;;;;;;5030474;28;20232;-70
2023/06/07 03:29:11;;;;;;;10.80;5.97;;;17.30;99.90;;;;;;5033918;28;20564;-70
2023/06/07 03:31:37;;;;;;;9.03;6.27;;;17.40;99.90;;;;;;5029021;28;20174;-70
2023/06/07 03:34:03;;;;;;;7.40;6.70;;;17.30;99.90;;;;;;5029973;28;20238;-70
2023/06/07 03:36:29;;;;;;;7.77;6.57;;;17.20;99.90;;;;;;5028964;28;20489;-70
2023/06/07 03:38:59;;;;;;;10.70;6.80;;;17.20;99.90;;;;;;5029987;28;21024;-70
2023/06/07 03:41:28;;;;;;;11.80;6.40;;;17.20;99.90;;;;;;5028752;28;20414;-70
2023/06/07 03:43:53;;;;;;;9.43;6.20;;;17.20;99.90;;;;;;5029837;28;20824;-70
2023/06/07 03:46:19;;;;;;;6.80;6.10;;;17.20;99.90;;;;;;5030232;28;20409;-70
2023/06/07 03:48:45;;;;;;;10.43;6.80;;;17.20;99.90;;;;;;5028454;28;20202;-70
2023/06/07 03:51:10;;;;;;;11.43;7.10;;;17.20;99.90;;;;;;5030095;28;20185;-70
2023/06/07 03:53:37;;;;;;;11.97;7.07;;;17.20;99.90;;;;;;5029240;28;20640;-70
2023/06/07 03:56:04;;;;;;;6.93;6.20;;;17.10;99.90;;;;;;5030073;28;20183;-70
2023/06/07 03:58:30;;;;;;;11.60;7.00;;;17.10;99.90;;;;;;5030871;28;21012;-70
2023/06/07 04:00:56;;;;;;;7.47;6.20;;;17.10;99.90;;;;;;5031307;28;20421;-70
2023/06/07 04:03:24;;;;;;;10.70;7.30;;;17.10;99.90;;;;;;5026933;28;20190;-70
2023/06/07 04:05:53;;;;;;;8.27;6.27;;;16.90;99.90;;;;;;5025776;28;20182;-70
2023/06/07 04:08:19;;;;;;;8.77;6.77;;;17.00;99.90;;;;;;5027577;28;20430;-70
2023/06/07 04:10:45;;;;;;;11.87;7.33;;;17.00;99.90;;;;;;5025783;28;20426;-70
2023/06/07 04:13:11;;;;;;;8.30;6.43;;;17.00;99.90;;;;;;5018598;28;20406;-70
2023/06/07 04:15:37;;;;;;;7.30;6.60;;;16.90;99.90;;;;;;5017145;28;20449;-70
2023/06/07 04:18:03;;;;;;;8.43;7.27;;;16.90;99.90;;;;;;5027274;28;20472;-70
2023/06/07 04:20:29;;;;;;;10.50;7.43;;;17.00;99.90;;;;;;5029581;28;20181;-70
2023/06/07 04:22:55;;;;;;;9.37;7.20;;;16.90;99.90;;;;;;5028782;28;20261;-70
2023/06/07 04:25:24;;;;;;;18.37;7.73;;;16.90;99.90;;;;;;5029345;28;20435;-70
2023/06/07 04:27:51;;;;;;;8.93;6.60;;;16.90;99.90;;;;;;5036075;28;20201;-70
2023/06/07 04:30:18;;;;;;;8.63;7.70;;;16.80;99.90;;;;;;5047118;28;20881;-70
2023/06/07 04:32:44;;;;;;;10.27;7.83;;;16.80;99.90;;;;;;5028637;28;20976;-70
2023/06/07 04:35:14;;;;;;;9.57;7.53;;;16.80;99.90;;;;;;5025444;28;20791;-70
2023/06/07 04:37:45;;;;;;;11.77;7.83;;;16.80;99.90;;;;;;5027459;28;20543;-70
2023/06/07 04:40:13;;;;;;;12.23;8.07;;;16.80;99.90;;;;;;5028682;28;20417;-70
2023/06/07 04:42:40;;;;;;;11.83;8.10;;;16.80;99.90;;;;;;5026511;28;20421;-70
2023/06/07 04:45:07;;;;;;;8.77;7.87;;;16.70;99.90;;;;;;5025782;28;20514;-70
2023/06/07 04:47:33;;;;;;;10.27;7.73;;;16.60;99.90;;;;;;5028125;28;20531;-70
2023/06/07 04:50:00;;;;;;;12.07;7.80;;;16.60;99.90;;;;;;5027755;28;20480;-70
2023/06/07 04:52:26;;;;;;;13.77;7.63;;;16.60;99.90;;;;;;5025884;28;20420;-70
2023/06/07 04:54:53;;;;;;;11.20;9.00;;;16.60;99.90;;;;;;5028236;28;20417;-70
2023/06/07 04:57:20;;;;;;;11.27;8.53;;;16.60;99.90;;;;;;5027901;28;20970;-70
2023/06/07 04:59:48;;;;;;;11.67;8.37;;;16.60;99.90;;;;;;5029098;28;20413;-70
2023/06/07 05:02:15;;;;;;;11.33;9.10;;;16.60;99.90;;;;;;5028242;28;20922;-70
2023/06/07 05:04:41;;;;;;;10.37;8.47;;;16.50;99.90;;;;;;5028621;28;20433;-70
2023/06/07 05:07:07;;;;;;;10.60;8.90;;;16.40;99.90;;;;;;5028827;28;20474;-70
2023/06/07 05:09:33;;;;;;;14.40;9.13;;;16.50;99.90;;;;;;5028890;28;20644;-70
2023/06/07 05:11:58;;;;;;;10.67;8.37;;;16.40;99.90;;;;;;5026490;28;20413;-70
2023/06/07 05:14:24;;;;;;;9.97;8.97;;;16.40;99.90;;;;;;5028555;28;20435;-70
2023/06/07 05:16:50;;;;;;;11.50;8.93;;;16.40;99.90;;;;;;5028592;28;20214;-70
2023/06/07 05:19:16;;;;;;;12.83;9.13;;;16.40;99.90;;;;;;5028751;28;20201;-70
2023/06/07 05:21:42;;;;;;;10.80;8.70;;;16.40;99.90;;;;;;5028072;28;20479;-70
2023/06/07 05:24:09;;;;;;;12.50;8.50;;;16.40;99.90;;;;;;5028395;28;20931;-70
2023/06/07 05:26:35;;;;;;;14.73;9.07;;;16.30;99.90;;;;;;5028716;28;20186;-70
2023/06/07 05:29:00;;;;;;;11.90;9.00;;;16.40;99.90;;;;;;5028476;28;20452;-70
2023/06/07 05:31:26;;;;;;;10.90;9.53;;;16.30;99.90;;;;;;5028058;28;20240;-70
2023/06/07 05:33:52;;;;;;;13.07;9.13;;;16.30;99.90;;;;;;5028136;28;20200;-70
2023/06/07 05:36:20;;;;;;;12.13;9.47;;;16.20;99.90;;;;;;5027183;28;20950;-70
2023/06/07 05:38:45;;;;;;;13.10;9.20;;;16.30;99.90;;;;;;5028411;28;20436;-70
2023/06/07 05:41:11;;;;;;;14.20;10.00;;;16.30;99.90;;;;;;5028478;28;20405;-70
2023/06/07 05:43:37;;;;;;;9.30;8.13;;;16.20;99.90;;;;;;5027554;28;20180;-70
2023/06/07 05:46:03;;;;;;;10.70;8.77;;;16.20;99.90;;;;;;5028462;28;20206;-70
2023/06/07 05:48:28;;;;;;;11.60;8.60;;;16.20;99.90;;;;;;5028472;28;20205;-70
2023/06/07 05:50:54;;;;;;;11.17;9.47;;;16.20;99.90;;;;;;5028312;28;20555;-70
2023/06/07 05:53:20;;;;;;;10.27;9.27;;;16.20;99.90;;;;;;5027568;28;20170;-70
2023/06/07 05:55:47;;;;;;;12.07;9.70;;;16.20;99.90;;;;;;5028499;28;20459;-70
2023/06/07 05:58:14;;;;;;;10.97;9.07;;;16.20;99.90;;;;;;5028183;28;20698;-70
2023/06/07 06:00:40;;;;;;;12.60;9.87;;;16.20;99.90;;;;;;5028377;28;20933;-70
2023/06/07 06:03:07;;;;;;;11.47;9.30;;;16.10;99.90;;;;;;5027211;28;20405;-70
2023/06/07 06:05:32;;;;;;;12.17;9.00;;;16.10;99.90;;;;;;5028250;28;20457;-70
2023/06/07 06:07:58;;;;;;;12.77;9.80;;;16.20;99.90;;;;;;5030324;28;20873;-70
2023/06/07 06:10:25;;;;;;;11.40;10.20;;;16.30;99.90;;;;;;5032045;28;20182;-70
2023/06/07 06:12:50;;;;;;;13.40;9.13;;;16.30;99.90;;;;;;5031179;28;20210;-70
2023/06/07 06:15:16;;;;;;;15.47;10.97;;;16.40;99.90;;;;;;5031677;28;20495;-70
2023/06/07 06:17:42;;;;;;;13.27;9.17;;;16.40;99.90;;;;;;5031618;28;20214;-70
2023/06/07 06:20:08;;;;;;;14.70;8.93;;;16.40;99.90;;;;;;5031810;28;20539;-70
2023/06/07 06:22:34;;;;;;;11.07;9.37;;;16.40;99.90;;;;;;5031241;28;20253;-70
2023/06/07 06:25:00;;;;;;;11.97;10.13;;;16.30;99.90;;;;;;5031088;28;20978;-70
2023/06/07 06:27:25;;;;;;;11.77;9.40;;;16.30;99.90;;;;;;5030375;28;20437;-70
2023/06/07 06:29:51;;;;;;;11.23;9.50;;;16.30;99.90;;;;;;5031638;28;20179;-70
2023/06/07 06:32:17;;;;;;;11.43;9.90;;;16.30;99.90;;;;;;5030911;28;20214;-70
2023/06/07 06:34:44;;;;;;;10.83;9.67;;;16.30;99.90;;;;;;5030038;28;20178;-70
2023/06/07 06:37:10;;;;;;;15.07;9.80;;;16.30;99.90;;;;;;5029787;28;20210;-70
2023/06/07 06:39:35;;;;;;;12.57;9.20;;;16.20;99.90;;;;;;5031506;28;20412;-70
2023/06/07 06:42:01;;;;;;;16.37;10.30;;;16.20;99.90;;;;;;5030798;28;20401;-70
2023/06/07 06:44:27;;;;;;;14.83;10.00;;;16.20;99.90;;;;;;5031091;28;20217;-70
2023/06/07 06:46:53;;;;;;;12.50;9.77;;;16.20;99.90;;;;;;5031394;28;21119;-70
2023/06/07 06:49:19;;;;;;;11.80;10.50;;;16.20;99.90;;;;;;5031565;28;20409;-70
2023/06/07 06:51:45;;;;;;;10.47;9.27;;;16.30;99.90;;;;;;5030614;28;20191;-70
2023/06/07 06:54:12;;;;;;;14.47;10.60;;;16.20;99.90;;;;;;5030825;28;20269;-70
2023/06/07 06:56:38;;;;;;;11.00;9.50;;;16.30;99.90;;;;;;5031210;28;21149;-70
2023/06/07 06:59:03;;;;;;;15.17;10.80;;;16.20;99.90;;;;;;5031241;28;20413;-70
2023/06/07 07:01:46;;;;;;;14.03;9.93;;;16.20;99.90;;;;;;5045913;28;20539;-70
2023/06/07 07:04:14;;;;;;;15.80;10.27;;;16.20;99.90;;;;;;5030669;28;20531;-70
2023/06/07 07:06:40;;;;;;;12.43;10.20;;;16.20;99.90;;;;;;5030841;28;20460;-70
2023/06/07 07:09:09;;;;;;;13.50;11.27;;;16.20;99.90;;;;;;5030932;28;20480;-70
2023/06/07 07:11:35;;;;;;;13.13;10.33;;;16.20;99.90;;;;;;5029762;28;20413;-70
2023/06/07 07:14:01;;;;;;;12.07;10.43;;;16.20;99.90;;;;;;5030363;28;20436;-71
2023/06/07 07:16:30;;;;;;;11.33;9.47;;;16.10;99.90;;;;;;5030667;28;20469;-71
2023/06/07 07:18:56;;;;;;;12.70;10.40;;;16.10;99.90;;;;;;5028721;28;20802;-71
2023/06/07 07:21:22;;;;;;;10.80;9.37;;;16.10;99.90;;;;;;5030170;28;20412;-71
2023/06/07 07:23:47;;;;;;;12.83;11.07;;;16.00;99.90;;;;;;5030162;28;20189;-70
2023/06/07 07:26:13;;;;;;;16.27;10.93;;;16.00;99.90;;;;;;5030685;28;20236;-70
2023/06/07 07:28:39;;;;;;;15.83;10.63;;;16.00;99.90;;;;;;5029038;28;20679;-71
2023/06/07 07:31:05;;;;;;;15.07;11.10;;;16.00;99.90;;;;;;5030471;28;20190;-70
2023/06/07 07:33:31;;;;;;;11.73;10.50;;;16.00;99.90;;;;;;5029546;28;20289;-70
2023/06/07 07:36:00;;;;;;;16.50;12.30;;;16.00;99.90;;;;;;5028955;28;20409;-71
2023/06/07 07:38:26;;;;;;;15.13;10.37;;;16.00;99.90;;;;;;5030248;28;20445;-70
2023/06/07 07:40:52;;;;;;;13.57;11.37;;;15.90;99.90;;;;;;5030175;28;20954;-70
2023/06/07 07:43:17;;;;;;;14.80;11.03;;;16.00;99.90;;;;;;5029064;28;20508;-70
2023/06/07 07:45:43;;;;;;;17.60;12.30;;;15.90;99.90;;;;;;5030249;28;20658;-71
2023/06/07 07:48:09;;;;;;;13.03;10.10;;;16.00;99.90;;;;;;5030075;28;20276;-71
2023/06/07 07:50:37;;;;;;;14.83;11.63;;;16.00;99.90;;;;;;5012413;28;20186;-71
2023/06/07 07:53:05;;;;;;;15.50;11.33;;;16.10;99.90;;;;;;5044535;28;20182;-71
2023/06/07 07:55:32;;;;;;;14.03;11.37;;;16.20;99.90;;;;;;5028959;28;20425;-70
2023/06/07 07:57:58;;;;;;;16.13;11.90;;;16.20;99.90;;;;;;5029994;28;20802;-70
2023/06/07 08:00:24;;;;;;;15.20;11.17;;;16.20;99.90;;;;;;5030464;28;20416;-70
2023/06/07 08:02:50;;;;;;;17.97;11.43;;;16.20;99.90;;;;;;5028013;28;20182;-71
2023/06/07 08:05:16;;;;;;;18.23;12.33;;;16.20;99.90;;;;;;5029589;28;20436;-70
2023/06/07 08:07:41;;;;;;;17.77;11.77;;;16.20;99.90;;;;;;5029890;28;20214;-71
2023/06/07 08:10:08;;;;;;;15.90;12.77;;;16.20;99.90;;;;;;5029799;28;20193;-70
2023/06/07 08:12:34;;;;;;;13.00;11.37;;;16.20;99.90;;;;;;5029069;28;20750;-71
2023/06/07 08:15:00;;;;;;;14.03;12.53;;;16.20;99.90;;;;;;5029550;28;20417;-70
2023/06/07 08:17:26;;;;;;;13.87;12.27;;;16.20;99.90;;;;;;5029445;28;20471;-71
2023/06/07 08:19:51;;;;;;;14.60;11.53;;;16.10;99.90;;;;;;5029727;28;20170;-71
2023/06/07 08:22:17;;;;;;;16.13;12.90;;;16.10;99.90;;;;;;5029087;28;20174;-71
2023/06/07 08:24:42;;;;;;;17.37;11.70;;;16.10;99.90;;;;;;5029254;28;20186;-70
2023/06/07 08:27:08;;;;;;;13.33;11.83;;;16.10;99.90;;;;;;5029476;28;20544;-70
2023/06/07 08:29:34;;;;;;;18.63;12.33;;;16.00;99.90;;;;;;5028750;28;20183;-70
2023/06/07 08:32:00;;;;;;;16.10;12.13;;;16.10;99.90;;;;;;5028823;28;20197;-70
2023/06/07 08:34:28;;;;;;;17.80;13.50;;;16.10;99.90;;;;;;5029092;28;20631;-70
2023/06/07 08:36:58;;;;;;;15.20;12.50;;;16.00;99.90;;;;;;5027913;28;20467;-70
2023/06/07 08:39:23;;;;;;;14.53;11.93;;;16.10;99.90;;;;;;5029452;28;21007;-70
2023/06/07 08:41:49;;;;;;;20.63;14.43;;;16.10;99.90;;;;;;5028732;28;20413;-71
2023/06/07 08:44:15;;;;;;;20.60;13.37;;;16.10;99.90;;;;;;5029204;28;20178;-71
2023/06/07 08:46:42;;;;;;;20.20;14.27;;;16.10;99.90;;;;;;5029217;28;20444;-70
2023/06/07 08:49:10;;;;;;;16.17;14.37;;;16.10;99.90;;;;;;5029264;28;20182;-71
2023/06/07 08:51:38;;;;;;;18.17;14.50;;;16.00;99.90;;;;;;5028569;28;20412;-71
2023/06/07 08:54:04;;;;;;;18.67;14.00;;;16.10;99.90;;;;;;5028776;28;20419;-70
2023/06/07 08:56:33;;;;;;;18.10;15.43;;;16.10;99.90;;;;;;5029100;28;20456;-70
2023/06/07 08:59:00;;;;;;;17.20;14.73;;;16.10;99.90;;;;;;5029106;28;20814;-70
2023/06/07 09:01:29;;;;;;;17.67;14.57;;;16.10;99.90;;;;;;5028575;28;20762;-71
2023/06/07 09:03:55;;;;;;;18.20;15.47;;;16.00;99.90;;;;;;5028782;28;20417;-71
2023/06/07 09:06:22;;;;;;;16.70;14.47;;;15.90;99.90;;;;;;5029313;28;20532;-70
2023/06/07 09:08:48;;;;;;;20.53;14.53;;;15.80;99.90;;;;;;5028971;28;20206;-70
2023/06/07 09:11:15;;;;;;;18.13;14.50;;;15.80;99.90;;;;;;5028484;28;20503;-71
2023/06/07 09:13:41;;;;;;;19.43;15.33;;;16.00;99.90;;;;;;5028527;28;20443;-70
2023/06/07 09:16:10;;;;;;;19.50;15.97;;;16.00;99.90;;;;;;5028787;28;20417;-70
2023/06/07 09:18:43;;;;;;;19.60;14.33;;;16.00;99.90;;;;;;5028861;28;20429;-71
2023/06/07 09:21:26;;;;;;;15.87;14.27;;;16.00;99.90;;;;;;5028693;28;20413;-71
2023/06/07 09:23:53;;;;;;;18.00;13.80;;;16.00;99.90;;;;;;5028632;28;20846;-70
2023/06/07 09:26:22;;;;;;;18.03;15.73;;;16.10;99.90;;;;;;5028746;28;20902;-71
2023/06/07 09:28:48;;;;;;;23.40;15.80;;;16.10;99.90;;;;;;5028488;28;20441;-71
2023/06/07 09:31:32;;;;;;;18.90;16.13;;;16.20;99.90;;;;;;5028466;28;20486;-70
2023/06/07 09:33:58;;;;;;;19.63;16.27;;;16.20;99.90;;;;;;5027412;28;20417;-71
2023/06/07 09:36:27;;;;;;;22.37;18.17;;;16.30;99.90;;;;;;5027201;28;20472;-70
2023/06/07 09:38:52;;;;;;;20.60;18.10;;;16.30;99.90;;;;;;5028563;28;20437;-71
2023/06/07 09:41:18;;;;;;;22.10;19.63;;;16.30;99.90;;;;;;5029195;28;20412;-70
2023/06/07 09:43:49;;;;;;;20.23;17.83;;;16.30;99.90;;;;;;5032097;28;20190;-71
2023/06/07 09:46:16;;;;;;;23.43;20.50;;;16.30;99.90;;;;;;5032581;28;20181;-70
2023/06/07 09:48:45;;;;;;;25.03;18.57;;;16.40;99.90;;;;;;5032357;28;20440;-71
2023/06/07 09:51:10;;;;;;;26.00;20.17;;;16.40;99.90;;;;;;5032375;28;21019;-71
2023/06/07 09:54:05;;;;;;;26.47;20.37;;;16.40;99.90;;;;;;5031537;28;20405;-70
2023/06/07 09:56:31;;;;;;;23.80;20.70;;;16.40;99.90;;;;;;5032464;28;20796;-71
2023/06/07 09:59:16;;;;;;;26.00;21.23;;;16.40;99.90;;;;;;5032328;28;20436;-70
2023/06/07 10:01:45;;;;;;;23.97;20.80;;;16.40;99.90;;;;;;5030513;28;20415;-71
2023/06/07 10:04:12;;;;;;;28.27;23.60;;;16.60;99.90;;;;;;5031870;28;20421;-71
2023/06/07 10:06:42;;;;;;;28.30;23.60;;;16.60;99.90;;;;;;5032302;28;20437;-70
2023/06/07 10:09:09;;;;;;;27.03;22.60;;;16.70;99.90;;;;;;5032363;28;20417;-70
2023/06/07 10:11:37;;;;;;;28.67;23.53;;;16.70;99.90;;;;;;5031613;28;20439;-71
2023/06/07 10:14:10;;;;;;;27.43;23.50;;;16.90;99.90;;;;;;5031748;28;20425;-71
2023/06/07 10:16:44;;;;;;;28.57;24.27;;;16.90;99.90;;;;;;5031923;28;20457;-70
2023/06/07 10:19:18;;;;;;;26.03;22.47;;;17.00;99.90;;;;;;5032052;28;20527;-71
2023/06/07 10:21:47;;;;;;;28.70;23.50;;;17.10;99.90;;;;;;5031345;28;20416;-71
2023/06/07 10:24:20;;;;;;;25.47;22.73;;;17.20;99.90;;;;;;5031667;28;20428;-70
2023/06/07 10:26:57;;;;;;;28.20;22.70;;;17.40;99.90;;;;;;5031888;28;20777;-71
2023/06/07 10:29:41;;;;;;;26.20;22.87;;;17.50;99.90;;;;;;5032001;28;20933;-71
2023/06/07 10:32:12;;;;;;;25.30;21.00;;;17.60;99.90;;;;;;5026614;28;20440;-71
2023/06/07 10:34:38;;;;;;;24.27;21.70;;;17.60;99.90;;;;;;5031083;28;20437;-71
2023/06/07 10:37:07;;;;;;;25.30;21.77;;;17.60;99.90;;;;;;5029613;28;20472;-70
2023/06/07 10:39:34;;;;;;;27.87;21.13;;;17.70;99.90;;;;;;5031381;28;20471;-71
2023/06/07 10:42:00;;;;;;;21.50;19.30;;;17.70;99.90;;;;;;5030791;28;20455;-71
2023/06/07 10:44:26;;;;;;;23.17;19.20;;;17.70;99.90;;;;;;5031152;28;20445;-71
2023/06/07 10:47:22;;;;;;;28.23;21.70;;;17.80;99.90;;;;;;5031454;28;20804;-71
2023/06/07 10:49:50;;;;;;;23.00;19.80;;;17.80;99.90;;;;;;5031216;28;20436;-70
2023/06/07 10:52:16;;;;;;;31.50;19.63;;;17.80;99.90;;;;;;5030450;28;20428;-70
2023/06/07 10:54:43;;;;;;;21.70;19.10;;;17.90;99.90;;;;;;5029214;28;20417;-70
2023/06/07 10:57:10;;;;;;;23.87;18.67;;;17.90;99.90;;;;;;5031153;28;20218;-70
2023/06/07 10:59:36;;;;;;;21.87;18.90;;;18.00;99.90;;;;;;5031083;28;20518;-70
2023/06/07 11:02:19;;;;;;;21.90;19.63;;;18.10;99.90;;;;;;5030378;28;20479;-71
2023/06/07 11:04:57;;;;;;;21.67;19.37;;;18.10;99.90;;;;;;5030299;28;20922;-70
2023/06/07 11:07:32;;;;;;;26.03;21.00;;;18.10;99.90;;;;;;5030660;28;20452;-71
2023/06/07 11:10:02;;;;;;;23.50;20.47;;;18.10;99.90;;;;;;5023689;28;20516;-71
2023/06/07 11:12:44;;;;;;;23.23;19.40;;;18.30;99.90;;;;;;5029166;28;20417;-71
2023/06/07 11:15:31;;;;;;;24.13;21.50;;;18.40;99.90;;;;;;5030540;28;20429;-71
2023/06/07 11:18:01;;;;;;;28.70;19.77;;;18.60;99.90;;;;;;5023198;28;20476;-71
2023/06/07 11:20:38;;;;;;;25.30;22.43;;;18.70;99.90;;;;;;5030600;28;20424;-71
2023/06/07 11:23:22;;;;;;;24.50;20.37;;;18.80;99.90;;;;;;5029468;28;20460;-71
2023/06/07 11:25:59;;;;;;;22.43;19.60;;;18.90;99.90;;;;;;5030391;28;20444;-71
2023/06/07 11:28:27;;;;;;;23.93;21.00;;;19.10;99.90;;;;;;5033860;28;20465;-71
2023/06/07 11:30:53;;;;;;;23.67;21.07;;;19.10;99.90;;;;;;5022580;28;20763;-71
2023/06/07 11:33:22;;;;;;;26.37;19.90;;;19.10;99.90;;;;;;5027433;28;20476;-71
2023/06/07 11:35:52;;;;;;;24.17;20.10;;;19.20;99.90;;;;;;5022567;28;20265;-71
2023/06/07 11:38:18;;;;;;;22.23;18.20;;;19.20;99.90;;;;;;5030102;28;21076;-71
2023/06/07 11:40:44;;;;;;;21.83;19.63;;;19.20;99.90;;;;;;5030188;28;21088;-71
2023/06/07 11:43:19;;;;;;;22.07;19.77;;;19.30;99.90;;;;;;5029010;28;20421;-71
2023/06/07 11:45:45;;;;;;;22.50;20.10;;;19.40;99.90;;;;;;5030019;28;20416;-71
2023/06/07 11:48:11;;;;;;;19.63;17.63;;;19.50;99.90;;;;;;5029721;28;20498;-71
2023/06/07 11:50:41;;;;;;;21.70;19.33;;;19.70;99.90;;;;;;5030258;28;20653;-71
2023/06/07 11:53:11;;;;;;;22.20;20.00;;;19.80;99.90;;;;;;5028014;28;20178;-71
2023/06/07 11:55:37;;;;;;;22.23;18.97;;;19.70;99.90;;;;;;5030170;28;20500;-71
2023/06/07 11:58:08;;;;;;;21.80;19.53;;;19.60;99.90;;;;;;5029974;28;20840;-71
2023/06/07 12:00:35;;;;;;;21.90;19.80;;;19.60;99.90;;;;;;5030238;28;20956;-71
2023/06/07 12:03:02;;;;;;;22.83;20.53;;;19.60;99.90;;;;;;5029197;28;20417;-71
2023/06/07 12:05:30;;;;;;;24.80;21.10;;;19.60;99.90;;;;;;5028459;28;20860;-71
2023/06/07 12:08:00;;;;;;;21.63;19.53;;;19.60;99.90;;;;;;5029835;28;20930;-71
2023/06/07 12:10:27;;;;;;;22.63;20.43;;;19.60;99.90;;;;;;5029974;28;20424;-71
2023/06/07 12:13:11;;;;;;;23.20;20.97;;;19.80;99.90;;;;;;5028054;28;20417;-71
2023/06/07 12:15:54;;;;;;;23.00;19.90;;;19.80;99.90;;;;;;5029715;28;20413;-71
2023/06/07 12:18:24;;;;;;;21.40;19.20;;;19.80;99.90;;;;;;5029542;28;20519;-71
2023/06/07 12:21:00;;;;;;;22.60;20.30;;;19.80;99.90;;;;;;5029706;28;20413;-71
2023/06/07 12:23:26;;;;;;;23.60;21.20;;;19.80;99.90;;;;;;5028582;28;20424;-71
2023/06/07 12:26:11;;;;;;;22.13;19.90;;;19.80;99.90;;;;;;5029458;28;20899;-71
2023/06/07 12:28:39;;;;;;;23.17;20.77;;;19.80;99.90;;;;;;5042491;28;20267;-71
2023/06/07 12:31:34;;;;;;;22.63;20.23;;;19.70;99.90;;;;;;5040752;28;20517;-71
2023/06/07 12:34:02;;;;;;;23.97;21.67;;;19.60;99.90;;;;;;5028836;28;20440;-71
2023/06/07 12:36:36;;;;;;;24.93;20.90;;;19.60;99.90;;;;;;5027857;28;20413;-71
2023/06/07 12:39:05;;;;;;;22.70;20.27;;;19.60;99.90;;;;;;5029285;28;20427;-71
2023/06/07 12:41:32;;;;;;;23.30;21.10;;;19.60;99.90;;;;;;5028540;28;20428;-71